sensor_id;sensor_type;location;lat;lon;timestamp;P1;durP1;ratioP1;P2;durP2;ratioP2
54917;SDS011;40818;50.562;7.454;2024-03-17T00:05:47;3.85;;;0.57;;
54917;SDS011;40818;50.562;7.454;2024-03-17T00:15:50;5.40;;;1.40;;
54917;SDS011;40818;50.562;7.454;2024-03-17T00:25:57;2.75;;;0.60;;
54917;SDS011;40818;50.562;7.454;2024-03-17T00:36:01;1.85;;;0.40;;
54917;SDS011;40818;50.562;7.454;2024-03-17T00:46:08;7.75;;;0.90;;
54917;SDS011;40818;50.562;7.454;2024-03-17T00:56:12;6.53;;;1.00;;
54917;SDS011;40818;50.562;7.454;2024-03-17T01:06:18;2.15;;;0.70;;
54917;SDS011;40818;50.562;7.454;2024-03-17T01:16:21;5.18;;;1.00;;
54917;SDS011;40818;50.562;7.454;2024-03-17T01:26:28;12.77;;;1.70;;
54917;SDS011;40818;50.562;7.454;2024-03-17T01:36:31;3.25;;;0.90;;
54917;SDS011;40818;50.562;7.454;2024-03-17T01:46:38;3.40;;;1.00;;
54917;SDS011;40818;50.562;7.454;2024-03-17T01:56:41;3.38;;;0.93;;
54917;SDS011;40818;50.562;7.454;2024-03-17T02:06:48;3.92;;;1.33;;
54917;SDS011;40818;50.562;7.454;2024-03-17T02:16:51;6.88;;;1.00;;
54917;SDS011;40818;50.562;7.454;2024-03-17T02:26:57;4.43;;;1.17;;
54917;SDS011;40818;50.562;7.454;2024-03-17T02:37:01;6.03;;;1.00;;
54917;SDS011;40818;50.562;7.454;2024-03-17T02:47:09;3.30;;;1.05;;
54917;SDS011;40818;50.562;7.454;2024-03-17T02:57:14;4.22;;;0.90;;
54917;SDS011;40818;50.562;7.454;2024-03-17T03:07:20;6.68;;;1.20;;
54917;SDS011;40818;50.562;7.454;2024-03-17T03:17:24;6.05;;;1.20;;
54917;SDS011;40818;50.562;7.454;2024-03-17T03:27:30;5.38;;;1.30;;
54917;SDS011;40818;50.562;7.454;2024-03-17T03:37:34;4.60;;;1.38;;
54917;SDS011;40818;50.562;7.454;2024-03-17T03:47:40;4.72;;;1.30;;
54917;SDS011;40818;50.562;7.454;2024-03-17T03:57:44;5.00;;;1.40;;
54917;SDS011;40818;50.562;7.454;2024-03-17T04:07:51;7.00;;;1.70;;
54917;SDS011;40818;50.562;7.454;2024-03-17T04:17:54;6.43;;;1.42;;
54917;SDS011;40818;50.562;7.454;2024-03-17T04:28:00;4.95;;;1.20;;
54917;SDS011;40818;50.562;7.454;2024-03-17T04:38:04;5.80;;;1.42;;
54917;SDS011;40818;50.562;7.454;2024-03-17T04:48:10;4.22;;;1.20;;
54917;SDS011;40818;50.562;7.454;2024-03-17T04:58:13;8.45;;;1.30;;
54917;SDS011;40818;50.562;7.454;2024-03-17T05:08:19;5.57;;;1.20;;
54917;SDS011;40818;50.562;7.454;2024-03-17T05:18:23;7.68;;;1.50;;
54917;SDS011;40818;50.562;7.454;2024-03-17T05:28:29;4.50;;;1.58;;
54917;SDS011;40818;50.562;7.454;2024-03-17T05:38:32;7.60;;;1.70;;
54917;SDS011;40818;50.562;7.454;2024-03-17T05:48:38;7.25;;;1.85;;
54917;SDS011;40818;50.562;7.454;2024-03-17T05:58:42;6.13;;;1.83;;
54917;SDS011;40818;50.562;7.454;2024-03-17T06:08:49;10.75;;;1.90;;
54917;SDS011;40818;50.562;7.454;2024-03-17T06:18:53;4.28;;;1.45;;
54917;SDS011;40818;50.562;7.454;2024-03-17T06:28:59;11.30;;;1.77;;
54917;SDS011;40818;50.562;7.454;2024-03-17T06:39:02;7.30;;;1.70;;
54917;SDS011;40818;50.562;7.454;2024-03-17T06:49:08;5.80;;;1.90;;
54917;SDS011;40818;50.562;7.454;2024-03-17T06:59:12;5.35;;;1.95;;
54917;SDS011;40818;50.562;7.454;2024-03-17T07:09:18;5.85;;;1.88;;
54917;SDS011;40818;50.562;7.454;2024-03-17T07:19:22;7.40;;;1.30;;
54917;SDS011;40818;50.562;7.454;2024-03-17T07:29:28;8.82;;;1.20;;
54917;SDS011;40818;50.562;7.454;2024-03-17T07:39:31;3.65;;;1.20;;
54917;SDS011;40818;50.562;7.454;2024-03-17T07:49:38;3.75;;;1.08;;
54917;SDS011;40818;50.562;7.454;2024-03-17T07:59:42;5.22;;;1.10;;
54917;SDS011;40818;50.562;7.454;2024-03-17T08:09:49;4.65;;;1.00;;
54917;SDS011;40818;50.562;7.454;2024-03-17T08:19:53;4.55;;;1.10;;
54917;SDS011;40818;50.562;7.454;2024-03-17T08:29:59;5.70;;;1.10;;
54917;SDS011;40818;50.562;7.454;2024-03-17T08:40:03;3.70;;;1.10;;
54917;SDS011;40818;50.562;7.454;2024-03-17T08:50:11;7.28;;;1.25;;
54917;SDS011;40818;50.562;7.454;2024-03-17T09:00:15;4.72;;;1.00;;
54917;SDS011;40818;50.562;7.454;2024-03-17T09:10:22;4.30;;;1.10;;
54917;SDS011;40818;50.562;7.454;2024-03-17T09:20:26;8.90;;;1.00;;
54917;SDS011;40818;50.562;7.454;2024-03-17T09:30:32;4.82;;;1.10;;
54917;SDS011;40818;50.562;7.454;2024-03-17T09:40:35;4.22;;;0.95;;
54917;SDS011;40818;50.562;7.454;2024-03-17T09:50:41;3.72;;;0.90;;
54917;SDS011;40818;50.562;7.454;2024-03-17T10:00:45;4.22;;;1.00;;
54917;SDS011;40818;50.562;7.454;2024-03-17T10:10:54;4.75;;;0.90;;
54917;SDS011;40818;50.562;7.454;2024-03-17T10:20:58;7.20;;;0.90;;
54917;SDS011;40818;50.562;7.454;2024-03-17T10:31:05;5.00;;;1.20;;
54917;SDS011;40818;50.562;7.454;2024-03-17T10:41:10;5.95;;;1.20;;
54917;SDS011;40818;50.562;7.454;2024-03-17T10:51:16;3.90;;;1.10;;
54917;SDS011;40818;50.562;7.454;2024-03-17T11:01:21;4.13;;;1.10;;
54917;SDS011;40818;50.562;7.454;2024-03-17T11:11:37;3.13;;;1.00;;
54917;SDS011;40818;50.562;7.454;2024-03-17T11:21:43;6.20;;;1.20;;
54917;SDS011;40818;50.562;7.454;2024-03-17T11:31:50;4.80;;;1.33;;
54917;SDS011;40818;50.562;7.454;2024-03-17T11:41:55;3.55;;;1.30;;
54917;SDS011;40818;50.562;7.454;2024-03-17T11:52:14;5.10;;;1.40;;
54917;SDS011;40818;50.562;7.454;2024-03-17T12:02:20;4.85;;;1.27;;
54917;SDS011;40818;50.562;7.454;2024-03-17T12:12:31;3.25;;;1.13;;
54917;SDS011;40818;50.562;7.454;2024-03-17T12:22:38;5.85;;;1.50;;
54917;SDS011;40818;50.562;7.454;2024-03-17T12:32:46;5.43;;;1.15;;
54917;SDS011;40818;50.562;7.454;2024-03-17T12:42:50;4.07;;;1.25;;
54917;SDS011;40818;50.562;7.454;2024-03-17T12:52:57;5.22;;;1.48;;
54917;SDS011;40818;50.562;7.454;2024-03-17T13:03:01;4.88;;;1.20;;
54917;SDS011;40818;50.562;7.454;2024-03-17T13:13:08;5.10;;;1.42;;
54917;SDS011;40818;50.562;7.454;2024-03-17T13:23:13;3.30;;;1.20;;
54917;SDS011;40818;50.562;7.454;2024-03-17T13:33:19;3.47;;;1.20;;
54917;SDS011;40818;50.562;7.454;2024-03-17T13:43:24;4.60;;;1.35;;
54917;SDS011;40818;50.562;7.454;2024-03-17T13:53:31;4.35;;;1.73;;
54917;SDS011;40818;50.562;7.454;2024-03-17T14:03:35;4.50;;;1.40;;
54917;SDS011;40818;50.562;7.454;2024-03-17T14:13:41;2.72;;;1.10;;
54917;SDS011;40818;50.562;7.454;2024-03-17T14:23:45;4.63;;;1.00;;
54917;SDS011;40818;50.562;7.454;2024-03-17T14:33:51;6.82;;;1.10;;
54917;SDS011;40818;50.562;7.454;2024-03-17T14:43:54;6.22;;;1.10;;
54917;SDS011;40818;50.562;7.454;2024-03-17T14:54:00;3.80;;;0.90;;
54917;SDS011;40818;50.562;7.454;2024-03-17T15:04:05;3.78;;;1.00;;
54917;SDS011;40818;50.562;7.454;2024-03-17T15:14:11;4.57;;;0.90;;
54917;SDS011;40818;50.562;7.454;2024-03-17T15:24:15;4.15;;;0.80;;
54917;SDS011;40818;50.562;7.454;2024-03-17T15:34:21;3.30;;;1.05;;
54917;SDS011;40818;50.562;7.454;2024-03-17T15:44:25;3.67;;;0.73;;
54917;SDS011;40818;50.562;7.454;2024-03-17T15:54:31;4.68;;;0.80;;
54917;SDS011;40818;50.562;7.454;2024-03-17T16:04:35;2.75;;;1.00;;
54917;SDS011;40818;50.562;7.454;2024-03-17T16:14:41;6.05;;;1.65;;
54917;SDS011;40818;50.562;7.454;2024-03-17T16:24:46;4.95;;;1.00;;
54917;SDS011;40818;50.562;7.454;2024-03-17T16:34:53;6.50;;;0.80;;
54917;SDS011;40818;50.562;7.454;2024-03-17T16:44:57;5.47;;;0.90;;
54917;SDS011;40818;50.562;7.454;2024-03-17T16:55:09;3.63;;;0.70;;
54917;SDS011;40818;50.562;7.454;2024-03-17T17:05:14;4.70;;;0.90;;
54917;SDS011;40818;50.562;7.454;2024-03-17T17:15:20;3.42;;;0.85;;
54917;SDS011;40818;50.562;7.454;2024-03-17T17:25:24;2.92;;;0.70;;
54917;SDS011;40818;50.562;7.454;2024-03-17T17:35:30;2.97;;;0.68;;
54917;SDS011;40818;50.562;7.454;2024-03-17T17:45:33;3.75;;;1.00;;
54917;SDS011;40818;50.562;7.454;2024-03-17T17:55:39;3.38;;;1.00;;
54917;SDS011;40818;50.562;7.454;2024-03-17T18:05:42;5.80;;;1.10;;
54917;SDS011;40818;50.562;7.454;2024-03-17T18:15:51;5.20;;;1.00;;
54917;SDS011;40818;50.562;7.454;2024-03-17T18:25:58;4.80;;;0.90;;
54917;SDS011;40818;50.562;7.454;2024-03-17T18:36:05;5.50;;;0.90;;
54917;SDS011;40818;50.562;7.454;2024-03-17T18:46:09;2.13;;;0.90;;
54917;SDS011;40818;50.562;7.454;2024-03-17T18:56:16;6.53;;;1.35;;
54917;SDS011;40818;50.562;7.454;2024-03-17T19:06:19;7.85;;;1.27;;
54917;SDS011;40818;50.562;7.454;2024-03-17T19:16:27;4.47;;;1.00;;
54917;SDS011;40818;50.562;7.454;2024-03-17T19:26:30;4.60;;;1.10;;
54917;SDS011;40818;50.562;7.454;2024-03-17T19:36:36;3.17;;;1.10;;
54917;SDS011;40818;50.562;7.454;2024-03-17T19:46:40;3.38;;;1.10;;
54917;SDS011;40818;50.562;7.454;2024-03-17T19:56:46;5.85;;;1.10;;
54917;SDS011;40818;50.562;7.454;2024-03-17T20:06:49;6.47;;;1.30;;
54917;SDS011;40818;50.562;7.454;2024-03-17T20:16:55;7.38;;;1.95;;
54917;SDS011;40818;50.562;7.454;2024-03-17T20:26:59;10.02;;;3.40;;
54917;SDS011;40818;50.562;7.454;2024-03-17T20:37:06;9.57;;;3.90;;
54917;SDS011;40818;50.562;7.454;2024-03-17T20:47:10;9.00;;;5.50;;
54917;SDS011;40818;50.562;7.454;2024-03-17T20:57:17;10.48;;;4.97;;
54917;SDS011;40818;50.562;7.454;2024-03-17T21:07:20;9.75;;;5.22;;
54917;SDS011;40818;50.562;7.454;2024-03-17T21:17:27;10.70;;;5.35;;
54917;SDS011;40818;50.562;7.454;2024-03-17T21:27:31;14.05;;;6.13;;
54917;SDS011;40818;50.562;7.454;2024-03-17T21:37:37;10.35;;;5.70;;
54917;SDS011;40818;50.562;7.454;2024-03-17T21:47:41;11.82;;;4.82;;
54917;SDS011;40818;50.562;7.454;2024-03-17T21:57:47;14.45;;;6.03;;
54917;SDS011;40818;50.562;7.454;2024-03-17T22:07:51;12.70;;;6.50;;
54917;SDS011;40818;50.562;7.454;2024-03-17T22:17:57;14.18;;;6.55;;
54917;SDS011;40818;50.562;7.454;2024-03-17T22:28:05;10.38;;;5.53;;
54917;SDS011;40818;50.562;7.454;2024-03-17T22:38:11;12.63;;;6.18;;
54917;SDS011;40818;50.562;7.454;2024-03-17T22:48:15;12.52;;;6.20;;
54917;SDS011;40818;50.562;7.454;2024-03-17T22:58:22;17.70;;;6.93;;
54917;SDS011;40818;50.562;7.454;2024-03-17T23:08:26;20.30;;;8.32;;
54917;SDS011;40818;50.562;7.454;2024-03-17T23:18:35;16.20;;;7.57;;
54917;SDS011;40818;50.562;7.454;2024-03-17T23:28:40;14.48;;;7.63;;
54917;SDS011;40818;50.562;7.454;2024-03-17T23:38:46;17.65;;;7.60;;
54917;SDS011;40818;50.562;7.454;2024-03-17T23:48:52;15.07;;;7.15;;
54917;SDS011;40818;50.562;7.454;2024-03-17T23:58:58;20.33;;;7.55;;
